Airfield :
LOGIN :

Register | Disclaimer

   EN    FR    IT 

 










Legend :    VFR   Marginal VFR   IFR   Intensive IFR   Very Intensive IFR
Visi :
Ceiling :
>= 8 km
>= 3000ft
5 to 8 km
1000 to 3000 ft
1500m to 5 km
500 to 1000 ft
800 to 1500m
200 to 500 ft
< 800m
< 200 ft
Symbols :   Thunderstorms  Fog  Heavy snow  Heavy precipitations  Wind > 20 kt
SIGMETs :     Misc.  Thunderstorms  Icing  Turbulence  Mountain Waves  Volcanic Ashes







- Airport Elevation : 1548 ft


LKNA - Náměšť Air Base

CURRENT METAR :
  • 200903Z 24005KT CAVOK M03/M04 Q1010 NOSIG RMK BLU BLU

EXPIRED METARs :
  • 200800Z 20003KT 9999 FEW040 SCT100 BKN200 M04/M05 Q1010 NOSIG RMK BLU BLU
  • 200700Z 22005KT 9999 SCT040 BKN200 M04/M04 Q1010 NOSIG RMK BLU BLU
  • 200600Z 23006KT 9999 BKN048 M02/M03 Q1010 NOSIG RMK BLU BLU

TAF TAF LKNA
Valid from the 20 at 06:00 until the 21 at 06:00 UTC


200500Z 2006/2106 21008KT 9999 SCT030
TEMPO 2009/2019 6000 SHSN BKN020
TEMPO 2013/2018 1500 SHSN BKN010
BECMG 2100/2102 BKN025
TEMPO 2102/2106 2000 SN OVC007
No reported NOTAMs for that airfield.



MET'MAP, your aeronautical weather chart ! - Copyright ORBIFLY December 2007 - Disclaimer

ORBIFLY MET'MAP TEAM :

Programming & Development : Alexandra Zaïnal
Concept & Development : Baudouin d'Aumeries
Co-Development & Prog : Marc-Olivier Méhu
Technical & hardware support : Manuel Goepfert

Contact : metmap@orbifly.com




SOURCES & CREDITS :

   NOAA